Create Custom Reports and Graphics: Custom Report

Alpine-Summit 8643' (Ward Mt.)

Current Conditions

7/8/20 12:15 AM (-07:00)
Updated Every 15 Minutes
Temp 53.7 °F   5.1
RH 14 %   15
Wet Bulb 36.0 °F   0.2
Dew Pt 6.3 °F   11.8
Wind Spd 0.3 mph   0.1
Wind Dir NE | 40 °
Wind Gust 2.3 mph   1.4
WindChill 54.0 °F   5.3

Last 6 Hours

Alpine-Summit 8643' (Ward Mt.)

15 Minute Data | America/Los_Angeles
as of 7/8/20 12:22 AM PDT
Date & Time Temp (°F) RH (%) Dew Pt (°F) Wet Bulb (°F) Wind Dir (°) Wind Spd (mph) Wind Gust (mph) WindChill (°F)
7/8/20 - 0015 53.7 14 6.3 36.0 NE | 40 0.3 2.3 54.0
7/8/20 - 0000 54.2 18 12.1 37.3 NE | 41 0.3 2.2 54.2
7/7/20 - 2345 54.1 21 15.5 37.9 NE | 40 0.3 2.5 54.2
7/7/20 - 2330 54.3 22 16.4 38.2 NE | 47 0.2 2.3 53.9
7/7/20 - 2315 53.6 33 25.2 40.3 NE | 36 0.3 2.4 53.4
7/7/20 - 2300 53.2 40 29.5 41.5 NE | 38 0.3 2.9 53.2
7/7/20 - 2245 53.1 43 31.3 42.2 NE | 39 0.3 2.8 53.2
7/7/20 - 2230 53.4 42 31.1 42.2 NNE | 33 0.4 3.6 53.2
7/7/20 - 2215 52.9 40 29.5 41.4 NE | 38 0.3 3.4 52.7
7/7/20 - 2200 52.4 39 27.9 40.6 NE | 37 0.4 3.8 52.3
7/7/20 - 2145 52.2 39 27.9 40.5 NNE | 31 0.3 2.2 52.2
7/7/20 - 2130 52.3 40 28.6 40.8 NE | 40 0.3 1.7 52.3
7/7/20 - 2115 52.3 40 28.7 40.8 NE | 38 0.3 1.7 52.6
7/7/20 - 2100 52.9 39 28.5 41.0 NE | 49 0.3 4.6 53.2
7/7/20 - 2045 53.8 37 28.4 41.4 NE | 35 0.3 2.1 54.6
7/7/20 - 2030 55.6 35 28.4 42.2 NE | 38 0.3 1.1 56.8
7/7/20 - 2015 57.9 33 29.1 43.5 NE | 41 0.3 1.7 58.8
7/7/20 - 2000 59.6 31 28.9 44.2 NE | 39 0.2 1.1 60.5
7/7/20 - 1945 61.6 29 29.1 45.1 NE | 37 0.3 1.5 61.7
7/7/20 - 1930 62.2 29 29.3 45.5 NE | 34 0.3 2.6 62.8
7/7/20 - 1915 63.7 28 29.8 46.3 NE | 40 0.2 1.2 63.3
7/7/20 - 1900 63.5 30 31.1 46.6 NE | 41 0.3 3.2 63.9
7/7/20 - 1845 63.3 28 29.9 46.1 NE | 38 0.2 1.5 63.9
7/7/20 - 1830 64.0 28 29.9 46.4 NE | 47 0.3 2.2 64.1
Max 64.0 43 31.3 46.6 - 0.4 4.6 64.1
Avg 56.2 32 26.4 42.0 - 0.3 2.4 56.5
Min 52.2 14 6.3 36.0 - 0.2 1.1 52.2

Last 30 Days

Alpine-Summit 8643' (Ward Mt.)

Daily Data | America/Los_Angeles
as of 7/8/20 12:22 AM PDT
Date Daily Max Temp (°F) Max Temp Time Daily Min Temp (°F) Min Temp Time Wind Spd (mph) Daily Max Wind (mph) Max RH (%) Min RH (%) Wet Bulb (°F)
7/7/20 66.4 1733 47.0 0544 0.3 4.6 43 17 39.7
7/6/20 68.7 1500 48.7 2359 0.3 4.3 42 14 41.1
7/5/20 71.3 1601 52.5 0611 0.3 4.1 48 15 42.2
7/4/20 69.3 1623 48.4 0434 0.3 4.3 59 22 43.3
7/3/20 66.4 1654 46.1 0338 0.3 4.8 84 33 45.1
7/2/20 67.0 1527 48.0 0336 0.3 4.5 80 40 45.9
7/1/20 65.1 1650 45.5 0553 0.3 4.2 67 29 43.3
6/30/20 60.7 1707 43.9 0554 0.3 4.6 67 40 41.4
6/29/20 60.8 1641 30.7 0547 0.3 4.7 94 30 37.2
6/28/20 54.5 1753 39.4 2359 0.3 5.1 94 25 41.6
6/27/20 73.0 1346 52.3 2358 0.3 4.9 58 22 49.6
6/26/20 84.2 1714 32.0 2215 0.3 6.1 62 12 51.5
6/25/20 78.8 1502 55.6 0520 0.3 5.0 84 23 53.4
6/24/20 75.3 1543 59.0 0556 0.3 4.9 70 26 54.3
6/23/20 81.7 1806 60.3 0524 0.3 4.1 69 20 53.4
6/22/20 83.2 1616 54.2 0422 0.3 4.1 69 21 53.0
6/21/20 73.4 1823 51.5 0543 0.3 3.7 55 19 45.7
6/20/20 68.1 1546 52.4 2359 0.3 6.7 54 30 46.5
6/19/20 69.5 1624 46.8 0543 0.3 3.6 52 28 43.7
6/18/20 70.2 1704 39.3 0533 0.3 4.1 62 15 39.3
6/17/20 57.1 1719 28.9 0541 0.3 4.7 93 1 34.1
6/16/20 50.7 1357 35.5 2332 0.3 4.0 99 38 36.4
6/15/20 55.2 1604 39.7 2348 0.3 4.1 99 10 42.2
6/14/20 57.6 1555 34.6 0023 0.3 4.8 81 10 37.7
6/13/20 43.2 1721 25.2 0615 0.3 4.4 99 60 30.8
6/12/20 51.7 1359 29.1 2332 0.3 4.5 99 49 39.0
6/11/20 66.0 1650 47.9 0501 0.3 4.8 69 22 42.8
6/10/20 65.3 1634 46.3 0410 0.4 4.6 70 30 44.5
6/9/20 64.3 1903 39.9 0120 0.3 4.6 73 22 41.5
6/8/20 57.9 1720 22.3 0542 0.3 4.5 98 27 31.7
Max 84.2 - 60.3 - 0.4 6.7 99 60 54.3
Avg - - - - 0.3 - - - 43.1
Min 43.2 - 22.3 - 0.3 3.6 42 1 30.8
Calm: 0.0%
Calm: 0.0%